Terminal Aerodrome Forecast
Issued by NWS

Home | Current Version | Previous Version | Text Only | Print | Product List | Glossary On
Versions: 1 2 3 4 5 6 7 8 9 10 11 12 13 14 15 16 17 18 19 20 21 22 23 24 25
000
FTUS46 KLOX 151740
TAFLAX
TAF
KLAX 151740Z 1518/1624 VRB03KT P6SM SKC
     FM152000 26009KT P6SM SKC
     FM160300 26004KT P6SM SKC
     FM160800 VRB03KT P6SM BKN250
     FM161500 11005KT P6SM BKN250
     FM162100 25007KT P6SM SCT250=

USA.gov is the U.S. government's official web portal to all federal, state and local government web resources and services.